sensor_id;sensor_type;location;lat;lon;timestamp;pressure;altitude;pressure_sealevel;temperature;humidity
6833;BME280;3454;42.654;23.378;2023-08-06T00:00:19;64996.94;;;19.18;100.00
6833;BME280;3454;42.654;23.378;2023-08-06T00:02:45;65005.44;;;19.28;100.00
6833;BME280;3454;42.654;23.378;2023-08-06T00:05:11;65024.22;;;19.46;100.00
6833;BME280;3454;42.654;23.378;2023-08-06T00:07:36;65049.06;;;19.68;100.00
6833;BME280;3454;42.654;23.378;2023-08-06T00:10:01;65025.31;;;19.47;100.00
6833;BME280;3454;42.654;23.378;2023-08-06T00:12:27;65068.19;;;19.83;100.00
6833;BME280;3454;42.654;23.378;2023-08-06T00:14:53;65066.72;;;19.84;100.00
6833;BME280;3454;42.654;23.378;2023-08-06T00:17:18;65015.59;;;19.40;100.00
6833;BME280;3454;42.654;23.378;2023-08-06T00:19:45;65000.66;;;19.26;100.00
6833;BME280;3454;42.654;23.378;2023-08-06T00:22:10;65017.59;;;19.40;100.00
6833;BME280;3454;42.654;23.378;2023-08-06T00:24:36;65051.63;;;19.68;100.00
6833;BME280;3454;42.654;23.378;2023-08-06T00:27:02;65088.25;;;20.04;100.00
6833;BME280;3454;42.654;23.378;2023-08-06T00:29:28;65094.16;;;20.07;100.00
6833;BME280;3454;42.654;23.378;2023-08-06T00:31:54;65071.91;;;19.91;100.00
6833;BME280;3454;42.654;23.378;2023-08-06T00:34:19;65076.69;;;19.93;100.00
6833;BME280;3454;42.654;23.378;2023-08-06T00:36:45;65097.09;;;20.12;100.00
6833;BME280;3454;42.654;23.378;2023-08-06T00:39:10;65105.97;;;20.20;100.00
6833;BME280;3454;42.654;23.378;2023-08-06T00:41:36;65092.69;;;20.08;100.00
6833;BME280;3454;42.654;23.378;2023-08-06T00:44:02;65090.47;;;20.06;100.00
6833;BME280;3454;42.654;23.378;2023-08-06T00:46:28;65092.16;;;20.07;100.00
6833;BME280;3454;42.654;23.378;2023-08-06T00:48:54;65092.88;;;20.10;100.00
6833;BME280;3454;42.654;23.378;2023-08-06T00:51:21;65087.38;;;20.05;100.00
6833;BME280;3454;42.654;23.378;2023-08-06T00:53:49;65091.78;;;20.09;100.00
6833;BME280;3454;42.654;23.378;2023-08-06T00:56:15;65101.53;;;20.16;100.00
6833;BME280;3454;42.654;23.378;2023-08-06T00:58:42;65064.53;;;19.82;100.00
6833;BME280;3454;42.654;23.378;2023-08-06T01:01:07;65060.09;;;19.78;100.00
6833;BME280;3454;42.654;23.378;2023-08-06T01:03:33;65039.13;;;19.59;100.00
6833;BME280;3454;42.654;23.378;2023-08-06T01:05:59;65038.03;;;19.58;100.00
6833;BME280;3454;42.654;23.378;2023-08-06T01:14:28;65104.63;;;20.17;100.00
6833;BME280;3454;42.654;23.378;2023-08-06T01:16:56;65063.78;;;19.79;100.00
6833;BME280;3454;42.654;23.378;2023-08-06T01:19:24;65011.72;;;19.37;100.00
6833;BME280;3454;42.654;23.378;2023-08-06T01:21:49;65010.72;;;19.31;100.00
6833;BME280;3454;42.654;23.378;2023-08-06T01:24:15;65006.53;;;19.29;100.00
6833;BME280;3454;42.654;23.378;2023-08-06T01:30:03;65024.41;;;19.48;100.00
6833;BME280;3454;42.654;23.378;2023-08-06T01:32:34;65023.88;;;19.48;100.00
6833;BME280;3454;42.654;23.378;2023-08-06T01:35:02;65011.16;;;19.36;100.00
6833;BME280;3454;42.654;23.378;2023-08-06T01:37:29;65023.69;;;19.45;100.00
6833;BME280;3454;42.654;23.378;2023-08-06T01:39:55;65023.69;;;19.45;100.00
6833;BME280;3454;42.654;23.378;2023-08-06T01:42:20;65011.84;;;19.32;100.00
6833;BME280;3454;42.654;23.378;2023-08-06T01:44:46;64992.19;;;19.16;100.00
6833;BME280;3454;42.654;23.378;2023-08-06T01:47:11;64983.53;;;19.11;100.00
6833;BME280;3454;42.654;23.378;2023-08-06T01:49:37;64982.03;;;19.05;100.00
6833;BME280;3454;42.654;23.378;2023-08-06T01:52:04;64976.75;;;19.02;100.00
6833;BME280;3454;42.654;23.378;2023-08-06T01:54:29;64994.41;;;19.18;100.00
6833;BME280;3454;42.654;23.378;2023-08-06T01:56:55;64992.53;;;19.14;100.00
6833;BME280;3454;42.654;23.378;2023-08-06T01:59:21;64985.91;;;19.08;100.00
6833;BME280;3454;42.654;23.378;2023-08-06T02:01:46;64976.19;;;19.02;100.00
6833;BME280;3454;42.654;23.378;2023-08-06T02:04:12;64975.41;;;18.99;100.00
6833;BME280;3454;42.654;23.378;2023-08-06T02:06:38;64974.53;;;19.00;100.00
6833;BME280;3454;42.654;23.378;2023-08-06T02:09:03;64959.09;;;18.86;100.00
6833;BME280;3454;42.654;23.378;2023-08-06T02:11:29;64957.22;;;18.82;100.00
6833;BME280;3454;42.654;23.378;2023-08-06T02:13:54;64944.94;;;18.76;100.00
6833;BME280;3454;42.654;23.378;2023-08-06T02:16:20;64955.00;;;18.80;100.00
6833;BME280;3454;42.654;23.378;2023-08-06T02:18:46;64951.56;;;18.82;100.00
6833;BME280;3454;42.654;23.378;2023-08-06T02:21:11;64954.47;;;18.80;100.00
6833;BME280;3454;42.654;23.378;2023-08-06T02:23:37;64943.06;;;18.72;100.00
6833;BME280;3454;42.654;23.378;2023-08-06T02:26:03;64937.00;;;18.66;100.00
6833;BME280;3454;42.654;23.378;2023-08-06T02:28:30;64933.69;;;18.63;100.00
6833;BME280;3454;42.654;23.378;2023-08-06T02:30:56;64925.44;;;18.56;100.00
6833;BME280;3454;42.654;23.378;2023-08-06T02:33:21;64912.19;;;18.43;100.00
6833;BME280;3454;42.654;23.378;2023-08-06T02:35:47;64920.47;;;18.51;100.00
6833;BME280;3454;42.654;23.378;2023-08-06T02:38:12;64957.63;;;18.87;100.00
6833;BME280;3454;42.654;23.378;2023-08-06T02:40:45;64961.06;;;18.86;100.00
6833;BME280;3454;42.654;23.378;2023-08-06T02:43:10;64950.44;;;18.81;100.00
6833;BME280;3454;42.654;23.378;2023-08-06T02:45:36;64978.72;;;19.02;100.00
6833;BME280;3454;42.654;23.378;2023-08-06T02:48:01;64958.53;;;18.86;100.00
6833;BME280;3454;42.654;23.378;2023-08-06T02:50:27;64957.75;;;18.83;100.00
6833;BME280;3454;42.654;23.378;2023-08-06T02:52:53;64963.63;;;18.86;100.00
6833;BME280;3454;42.654;23.378;2023-08-06T02:55:18;64962.03;;;18.91;100.00
6833;BME280;3454;42.654;23.378;2023-08-06T02:57:44;64978.19;;;19.01;100.00
6833;BME280;3454;42.654;23.378;2023-08-06T03:00:09;64970.84;;;18.99;100.00
6833;BME280;3454;42.654;23.378;2023-08-06T03:02:37;65018.50;;;19.38;100.00
6833;BME280;3454;42.654;23.378;2023-08-06T03:05:02;65054.59;;;19.73;100.00
6833;BME280;3454;42.654;23.378;2023-08-06T03:07:28;65055.69;;;19.74;100.00
6833;BME280;3454;42.654;23.378;2023-08-06T03:09:54;65051.28;;;19.70;100.00
6833;BME280;3454;42.654;23.378;2023-08-06T03:12:20;65005.78;;;19.26;100.00
6833;BME280;3454;42.654;23.378;2023-08-06T03:14:45;65006.31;;;19.27;100.00
6833;BME280;3454;42.654;23.378;2023-08-06T03:17:11;65036.56;;;19.59;100.00
6833;BME280;3454;42.654;23.378;2023-08-06T03:19:37;65031.38;;;19.52;100.00
6833;BME280;3454;42.654;23.378;2023-08-06T03:22:02;65036.94;;;19.57;100.00
6833;BME280;3454;42.654;23.378;2023-08-06T03:24:27;64989.41;;;19.14;100.00
6833;BME280;3454;42.654;23.378;2023-08-06T03:26:53;64964.59;;;18.91;100.00
6833;BME280;3454;42.654;23.378;2023-08-06T03:29:18;64985.00;;;19.10;100.00
6833;BME280;3454;42.654;23.378;2023-08-06T03:31:44;64992.53;;;19.14;100.00
6833;BME280;3454;42.654;23.378;2023-08-06T03:34:09;64983.91;;;19.09;100.00
6833;BME280;3454;42.654;23.378;2023-08-06T03:36:35;65003.00;;;19.24;100.00
6833;BME280;3454;42.654;23.378;2023-08-06T03:39:00;65013.72;;;19.36;100.00
6833;BME280;3454;42.654;23.378;2023-08-06T03:41:26;64988.66;;;19.11;100.00
6833;BME280;3454;42.654;23.378;2023-08-06T03:43:51;64983.34;;;19.08;100.00
6833;BME280;3454;42.654;23.378;2023-08-06T03:46:17;65035.59;;;19.54;100.00
6833;BME280;3454;42.654;23.378;2023-08-06T03:48:42;65020.69;;;19.40;100.00
6833;BME280;3454;42.654;23.378;2023-08-06T03:51:07;65001.56;;;19.25;100.00
6833;BME280;3454;42.654;23.378;2023-08-06T03:53:33;64996.41;;;19.18;100.00
6833;BME280;3454;42.654;23.378;2023-08-06T03:55:59;64996.41;;;19.18;100.00
6833;BME280;3454;42.654;23.378;2023-08-06T03:58:26;65004.09;;;19.25;100.00
6833;BME280;3454;42.654;23.378;2023-08-06T04:01:02;65038.56;;;19.59;100.00
6833;BME280;3454;42.654;23.378;2023-08-06T04:03:28;65040.56;;;19.58;100.00
6833;BME280;3454;42.654;23.378;2023-08-06T04:05:54;65020.34;;;19.42;100.00
6833;BME280;3454;42.654;23.378;2023-08-06T04:08:19;65015.94;;;19.38;100.00
6833;BME280;3454;42.654;23.378;2023-08-06T04:10:45;65022.34;;;19.42;100.00
6833;BME280;3454;42.654;23.378;2023-08-06T04:13:10;65035.25;;;19.56;100.00
6833;BME280;3454;42.654;23.378;2023-08-06T04:15:36;65027.53;;;19.49;100.00
6833;BME280;3454;42.654;23.378;2023-08-06T04:18:01;65008.19;;;19.31;100.00
6833;BME280;3454;42.654;23.378;2023-08-06T04:20:27;64998.25;;;19.22;100.00
6833;BME280;3454;42.654;23.378;2023-08-06T04:22:54;65029.53;;;19.48;100.00
6833;BME280;3454;42.654;23.378;2023-08-06T04:25:20;65069.28;;;19.84;100.00
6833;BME280;3454;42.654;23.378;2023-08-06T04:27:49;65063.97;;;19.82;100.00
6833;BME280;3454;42.654;23.378;2023-08-06T04:30:15;65024.41;;;19.48;100.00
6833;BME280;3454;42.654;23.378;2023-08-06T04:32:41;65009.28;;;19.32;100.00
6833;BME280;3454;42.654;23.378;2023-08-06T04:35:06;65003.75;;;19.27;100.00
6833;BME280;3454;42.654;23.378;2023-08-06T04:37:32;65007.22;;;19.25;100.00
6833;BME280;3454;42.654;23.378;2023-08-06T04:39:58;65012.41;;;19.33;100.00
6833;BME280;3454;42.654;23.378;2023-08-06T04:42:23;64998.25;;;19.22;100.00
6833;BME280;3454;42.654;23.378;2023-08-06T04:44:49;64993.28;;;19.17;100.00
6833;BME280;3454;42.654;23.378;2023-08-06T04:47:15;64991.06;;;19.15;100.00
6833;BME280;3454;42.654;23.378;2023-08-06T04:49:41;64993.84;;;19.18;100.00
6833;BME280;3454;42.654;23.378;2023-08-06T04:52:06;64997.13;;;19.21;100.00
6833;BME280;3454;42.654;23.378;2023-08-06T04:54:32;64982.81;;;19.08;100.00
6833;BME280;3454;42.654;23.378;2023-08-06T04:56:57;64996.59;;;19.20;100.00
6833;BME280;3454;42.654;23.378;2023-08-06T04:59:22;65007.09;;;19.30;100.00
6833;BME280;3454;42.654;23.378;2023-08-06T05:01:48;65018.16;;;19.40;100.00
6833;BME280;3454;42.654;23.378;2023-08-06T05:04:13;65041.00;;;19.63;100.00
6833;BME280;3454;42.654;23.378;2023-08-06T05:06:39;65042.44;;;19.62;100.00
6833;BME280;3454;42.654;23.378;2023-08-06T05:09:05;65058.25;;;19.74;100.00
6833;BME280;3454;42.654;23.378;2023-08-06T05:11:31;65073.56;;;19.93;100.00
6833;BME280;3454;42.654;23.378;2023-08-06T05:13:57;65060.09;;;19.78;100.00
6833;BME280;3454;42.654;23.378;2023-08-06T05:16:23;65073.16;;;19.88;100.00
6833;BME280;3454;42.654;23.378;2023-08-06T05:18:49;65083.84;;;20.00;100.00
6833;BME280;3454;42.654;23.378;2023-08-06T05:21:14;65055.69;;;19.74;100.00
6833;BME280;3454;42.654;23.378;2023-08-06T05:23:41;65032.50;;;19.53;100.00
6833;BME280;3454;42.654;23.378;2023-08-06T05:26:07;65043.56;;;19.63;100.00
6833;BME280;3454;42.654;23.378;2023-08-06T05:28:33;65041.00;;;19.63;100.00
6833;BME280;3454;42.654;23.378;2023-08-06T05:30:59;65050.19;;;19.69;100.00
6833;BME280;3454;42.654;23.378;2023-08-06T05:33:27;65087.72;;;20.03;100.00
6833;BME280;3454;42.654;23.378;2023-08-06T05:35:53;65125.09;;;20.35;100.00
6833;BME280;3454;42.654;23.378;2023-08-06T05:38:18;65134.16;;;20.46;100.00
6833;BME280;3454;42.654;23.378;2023-08-06T05:40:43;65152.56;;;20.65;100.00
6833;BME280;3454;42.654;23.378;2023-08-06T05:43:09;65156.25;;;20.66;100.00
6833;BME280;3454;42.654;23.378;2023-08-06T05:45:35;65163.97;;;20.73;100.00
6833;BME280;3454;42.654;23.378;2023-08-06T05:48:00;65151.28;;;20.61;100.00
6833;BME280;3454;42.654;23.378;2023-08-06T05:50:25;65171.72;;;20.80;100.00
6833;BME280;3454;42.654;23.378;2023-08-06T05:52:51;65220.03;;;21.26;100.00
6833;BME280;3454;42.654;23.378;2023-08-06T05:55:17;65232.19;;;21.37;100.00
6833;BME280;3454;42.654;23.378;2023-08-06T05:57:42;65209.34;;;21.14;100.00
6833;BME280;3454;42.654;23.378;2023-08-06T06:00:08;65196.06;;;21.02;100.00
6833;BME280;3454;42.654;23.378;2023-08-06T06:02:34;65172.47;;;20.83;100.00
6833;BME280;3454;42.654;23.378;2023-08-06T06:04:59;65149.81;;;20.62;100.00
6833;BME280;3454;42.654;23.378;2023-08-06T06:07:24;65128.25;;;20.43;100.00
6833;BME280;3454;42.654;23.378;2023-08-06T06:09:50;65115.00;;;20.31;100.00
6833;BME280;3454;42.654;23.378;2023-08-06T06:12:15;65133.03;;;20.45;100.00
6833;BME280;3454;42.654;23.378;2023-08-06T06:14:41;65121.25;;;20.32;100.00
6833;BME280;3454;42.654;23.378;2023-08-06T06:17:06;65125.50;;;20.40;100.00
6833;BME280;3454;42.654;23.378;2023-08-06T06:19:32;65143.00;;;20.54;100.00
6833;BME280;3454;42.654;23.378;2023-08-06T06:21:58;65149.06;;;20.59;100.00
6833;BME280;3454;42.654;23.378;2023-08-06T06:24:23;65180.56;;;20.88;100.00
6833;BME280;3454;42.654;23.378;2023-08-06T06:26:49;65168.03;;;20.79;100.00
6833;BME280;3454;42.654;23.378;2023-08-06T06:29:15;65166.00;;;20.72;100.00
6833;BME280;3454;42.654;23.378;2023-08-06T06:31:40;65184.63;;;20.94;100.00
6833;BME280;3454;42.654;23.378;2023-08-06T06:34:06;65180.38;;;20.85;100.00
6833;BME280;3454;42.654;23.378;2023-08-06T06:36:31;65213.97;;;21.21;100.00
6833;BME280;3454;42.654;23.378;2023-08-06T06:38:57;65255.44;;;21.58;100.00
6833;BME280;3454;42.654;23.378;2023-08-06T06:41:22;65273.50;;;21.72;100.00
6833;BME280;3454;42.654;23.378;2023-08-06T06:43:49;65257.44;;;21.58;100.00
6833;BME280;3454;42.654;23.378;2023-08-06T06:46:14;65286.44;;;21.87;100.00
6833;BME280;3454;42.654;23.378;2023-08-06T06:48:39;65307.13;;;22.08;100.00
6833;BME280;3454;42.654;23.378;2023-08-06T06:51:05;65339.91;;;22.33;100.00
6833;BME280;3454;42.654;23.378;2023-08-06T06:53:30;65360.38;;;22.51;100.00
6833;BME280;3454;42.654;23.378;2023-08-06T06:56:01;65301.91;;;22.01;100.00
6833;BME280;3454;42.654;23.378;2023-08-06T06:58:27;65308.56;;;22.07;100.00
6833;BME280;3454;42.654;23.378;2023-08-06T07:00:53;65256.00;;;21.59;100.00
6833;BME280;3454;42.654;23.378;2023-08-06T07:03:20;65256.00;;;21.59;100.00
6833;BME280;3454;42.654;23.378;2023-08-06T07:05:46;65241.03;;;21.45;100.00
6833;BME280;3454;42.654;23.378;2023-08-06T07:08:12;65225.56;;;21.31;100.00
6833;BME280;3454;42.654;23.378;2023-08-06T07:10:41;65208.44;;;21.16;100.00
6833;BME280;3454;42.654;23.378;2023-08-06T07:13:07;65213.41;;;21.20;100.00
6833;BME280;3454;42.654;23.378;2023-08-06T07:15:32;65228.34;;;21.34;100.00
6833;BME280;3454;42.654;23.378;2023-08-06T07:17:58;65205.13;;;21.13;100.00
6833;BME280;3454;42.654;23.378;2023-08-06T07:20:23;65238.84;;;21.43;100.00
6833;BME280;3454;42.654;23.378;2023-08-06T07:22:49;65270.91;;;21.72;100.00
6833;BME280;3454;42.654;23.378;2023-08-06T07:25:16;65263.16;;;21.65;100.00
6833;BME280;3454;42.654;23.378;2023-08-06T07:27:41;65264.28;;;21.66;99.21
6833;BME280;3454;42.654;23.378;2023-08-06T07:30:08;65270.56;;;21.74;99.83
6833;BME280;3454;42.654;23.378;2023-08-06T07:32:34;65275.69;;;21.74;97.62
6833;BME280;3454;42.654;23.378;2023-08-06T07:34:59;65276.44;;;21.77;98.14
6833;BME280;3454;42.654;23.378;2023-08-06T07:37:26;65278.47;;;21.77;94.63
6833;BME280;3454;42.654;23.378;2023-08-06T07:39:55;65298.63;;;21.98;90.92
6833;BME280;3454;42.654;23.378;2023-08-06T07:42:22;65293.97;;;21.91;91.21
6833;BME280;3454;42.654;23.378;2023-08-06T07:44:52;65312.25;;;22.08;88.97
6833;BME280;3454;42.654;23.378;2023-08-06T07:47:18;65301.19;;;21.98;90.43
6833;BME280;3454;42.654;23.378;2023-08-06T07:49:44;65305.78;;;22.04;90.77
6833;BME280;3454;42.654;23.378;2023-08-06T07:52:09;65321.09;;;22.16;88.22
6833;BME280;3454;42.654;23.378;2023-08-06T07:54:35;65299.16;;;21.98;88.44
6833;BME280;3454;42.654;23.378;2023-08-06T07:57:00;65337.91;;;22.33;87.93
6833;BME280;3454;42.654;23.378;2023-08-06T07:59:26;65363.69;;;22.54;86.95
6833;BME280;3454;42.654;23.378;2023-08-06T08:01:51;65344.34;;;22.37;84.27
6833;BME280;3454;42.654;23.378;2023-08-06T08:04:16;65334.03;;;22.30;83.99
6833;BME280;3454;42.654;23.378;2023-08-06T08:06:42;65335.13;;;22.31;82.77
6833;BME280;3454;42.654;23.378;2023-08-06T08:09:07;65365.03;;;22.58;84.44
6833;BME280;3454;42.654;23.378;2023-08-06T08:11:33;65388.09;;;22.77;84.15
6833;BME280;3454;42.654;23.378;2023-08-06T08:13:58;65396.59;;;22.87;84.80
6833;BME280;3454;42.654;23.378;2023-08-06T08:16:23;65429.28;;;23.16;82.45
6833;BME280;3454;42.654;23.378;2023-08-06T08:18:49;65416.34;;;23.02;81.93
6833;BME280;3454;42.654;23.378;2023-08-06T08:21:14;65418.38;;;23.09;81.73
6833;BME280;3454;42.654;23.378;2023-08-06T08:23:40;65401.00;;;22.91;84.92
6833;BME280;3454;42.654;23.378;2023-08-06T08:26:07;65370.00;;;22.63;85.46
6833;BME280;3454;42.654;23.378;2023-08-06T08:28:32;65385.50;;;22.77;89.23
6833;BME280;3454;42.654;23.378;2023-08-06T08:30:58;65387.53;;;22.76;80.81
6833;BME280;3454;42.654;23.378;2023-08-06T08:33:24;65397.16;;;22.87;79.33
6833;BME280;3454;42.654;23.378;2023-08-06T08:35:50;65414.88;;;23.03;78.27
6833;BME280;3454;42.654;23.378;2023-08-06T08:38:16;65424.84;;;23.12;78.03
6833;BME280;3454;42.654;23.378;2023-08-06T08:40:53;65423.72;;;23.11;76.78
6833;BME280;3454;42.654;23.378;2023-08-06T08:43:23;65419.84;;;23.08;74.33
6833;BME280;3454;42.654;23.378;2023-08-06T08:45:52;65424.84;;;23.12;74.01
6833;BME280;3454;42.654;23.378;2023-08-06T08:48:21;65399.38;;;22.89;76.93
6833;BME280;3454;42.654;23.378;2023-08-06T08:50:49;65393.84;;;22.84;79.58
6833;BME280;3454;42.654;23.378;2023-08-06T08:53:15;65402.13;;;22.92;79.08
6833;BME280;3454;42.654;23.378;2023-08-06T08:55:43;65410.44;;;22.99;79.81
6833;BME280;3454;42.654;23.378;2023-08-06T08:58:12;65409.69;;;22.96;79.28
6833;BME280;3454;42.654;23.378;2023-08-06T09:00:42;65427.41;;;23.12;80.11
6833;BME280;3454;42.654;23.378;2023-08-06T09:03:08;65421.50;;;23.09;79.37
6833;BME280;3454;42.654;23.378;2023-08-06T09:05:34;65432.22;;;23.21;80.98
6833;BME280;3454;42.654;23.378;2023-08-06T09:08:03;65447.22;;;23.35;79.50
6833;BME280;3454;42.654;23.378;2023-08-06T09:10:29;65468.06;;;23.52;79.31
6833;BME280;3454;42.654;23.378;2023-08-06T09:12:55;65482.84;;;23.63;76.22
6833;BME280;3454;42.654;23.378;2023-08-06T09:15:25;65490.78;;;23.72;74.60
6833;BME280;3454;42.654;23.378;2023-08-06T09:17:54;65518.50;;;23.97;74.77
6833;BME280;3454;42.654;23.378;2023-08-06T09:20:20;65472.13;;;23.58;75.25
6833;BME280;3454;42.654;23.378;2023-08-06T09:22:46;65496.88;;;23.78;76.47
6833;BME280;3454;42.654;23.378;2023-08-06T09:25:23;65542.00;;;24.21;77.28
6833;BME280;3454;42.654;23.378;2023-08-06T09:27:50;65562.88;;;24.38;73.70
6833;BME280;3454;42.654;23.378;2023-08-06T09:30:29;65623.91;;;24.93;74.83
6833;BME280;3454;42.654;23.378;2023-08-06T09:32:56;65596.72;;;24.68;68.96
6833;BME280;3454;42.654;23.378;2023-08-06T09:35:21;65565.63;;;24.40;70.90
6833;BME280;3454;42.654;23.378;2023-08-06T09:37:47;65546.59;;;24.21;72.94
6833;BME280;3454;42.654;23.378;2023-08-06T09:40:30;65530.91;;;24.11;72.68
6833;BME280;3454;42.654;23.378;2023-08-06T09:42:56;65573.97;;;24.48;72.49
6833;BME280;3454;42.654;23.378;2023-08-06T09:45:23;65595.59;;;24.67;66.93
6833;BME280;3454;42.654;23.378;2023-08-06T09:47:50;65585.97;;;24.56;66.76
6833;BME280;3454;42.654;23.378;2023-08-06T09:50:19;65568.63;;;24.45;63.16
6833;BME280;3454;42.654;23.378;2023-08-06T09:52:47;65539.03;;;24.16;61.18
6833;BME280;3454;42.654;23.378;2023-08-06T09:55:14;65533.28;;;24.08;61.14
6833;BME280;3454;42.654;23.378;2023-08-06T09:57:43;65521.25;;;24.00;62.42
6833;BME280;3454;42.654;23.378;2023-08-06T10:00:09;65530.72;;;24.08;63.18
6833;BME280;3454;42.654;23.378;2023-08-06T10:02:39;65535.72;;;24.13;64.13
6833;BME280;3454;42.654;23.378;2023-08-06T10:05:07;65530.16;;;24.08;63.81
6833;BME280;3454;42.654;23.378;2023-08-06T10:07:33;65531.84;;;24.09;62.05
6833;BME280;3454;42.654;23.378;2023-08-06T10:09:59;65510.38;;;23.92;61.42
6833;BME280;3454;42.654;23.378;2023-08-06T10:12:32;65512.59;;;23.94;62.24
6833;BME280;3454;42.654;23.378;2023-08-06T10:15:09;65528.50;;;24.06;63.17
6833;BME280;3454;42.654;23.378;2023-08-06T10:17:36;65523.47;;;24.02;63.20
6833;BME280;3454;42.654;23.378;2023-08-06T10:20:05;65589.84;;;24.60;61.58
6833;BME280;3454;42.654;23.378;2023-08-06T10:22:33;65592.66;;;24.69;61.35
6833;BME280;3454;42.654;23.378;2023-08-06T10:24:59;65591.16;;;24.63;61.28
6833;BME280;3454;42.654;23.378;2023-08-06T10:27:53;65542.72;;;24.17;62.59
6833;BME280;3454;42.654;23.378;2023-08-06T10:30:23;65540.69;;;24.17;62.93
6833;BME280;3454;42.654;23.378;2023-08-06T10:32:53;65553.09;;;24.31;61.80
6833;BME280;3454;42.654;23.378;2023-08-06T10:35:44;65575.41;;;24.47;60.58
6833;BME280;3454;42.654;23.378;2023-08-06T10:41:02;65525.34;;;24.06;59.54
6833;BME280;3454;42.654;23.378;2023-08-06T10:43:34;65517.94;;;23.97;60.95
6833;BME280;3454;42.654;23.378;2023-08-06T10:46:21;65508.53;;;23.88;62.13
6833;BME280;3454;42.654;23.378;2023-08-06T10:48:47;65501.50;;;23.84;65.16
6833;BME280;3454;42.654;23.378;2023-08-06T10:51:13;65503.34;;;23.81;67.18
6833;BME280;3454;42.654;23.378;2023-08-06T10:53:49;65495.41;;;23.79;68.39
6833;BME280;3454;42.654;23.378;2023-08-06T10:56:20;65495.22;;;23.76;67.43
6833;BME280;3454;42.654;23.378;2023-08-06T10:58:48;65478.78;;;23.64;68.73
6833;BME280;3454;42.654;23.378;2023-08-06T11:01:14;65489.69;;;23.71;68.83
6833;BME280;3454;42.654;23.378;2023-08-06T11:03:41;65484.34;;;23.69;69.64
6833;BME280;3454;42.654;23.378;2023-08-06T11:06:07;65495.03;;;23.74;69.93
6833;BME280;3454;42.654;23.378;2023-08-06T11:08:35;65488.78;;;23.73;68.34
6833;BME280;3454;42.654;23.378;2023-08-06T11:11:11;65516.47;;;23.98;68.44
6833;BME280;3454;42.654;23.378;2023-08-06T11:13:43;65520.16;;;23.99;67.91
6833;BME280;3454;42.654;23.378;2023-08-06T11:16:12;65557.53;;;24.35;67.55
6833;BME280;3454;42.654;23.378;2023-08-06T11:18:40;65619.09;;;24.91;65.67
6833;BME280;3454;42.654;23.378;2023-08-06T11:21:07;65690.69;;;25.56;64.20
6833;BME280;3454;42.654;23.378;2023-08-06T11:23:34;65790.28;;;26.48;60.83
6833;BME280;3454;42.654;23.378;2023-08-06T11:26:00;65759.03;;;26.18;59.67
6833;BME280;3454;42.654;23.378;2023-08-06T11:28:26;65625.75;;;24.97;62.44
6833;BME280;3454;42.654;23.378;2023-08-06T11:30:52;65578.03;;;24.54;58.24
6833;BME280;3454;42.654;23.378;2023-08-06T11:33:25;65536.81;;;24.14;59.09
6833;BME280;3454;42.654;23.378;2023-08-06T11:35:51;65560.31;;;24.38;59.50
6833;BME280;3454;42.654;23.378;2023-08-06T11:38:18;65533.50;;;24.11;62.20
6833;BME280;3454;42.654;23.378;2023-08-06T11:40:47;65476.03;;;23.61;65.82
6833;BME280;3454;42.654;23.378;2023-08-06T11:43:13;65458.09;;;23.43;69.01
6833;BME280;3454;42.654;23.378;2023-08-06T11:45:39;65438.34;;;23.27;69.31
6833;BME280;3454;42.654;23.378;2023-08-06T11:48:06;65380.00;;;22.72;75.82
6833;BME280;3454;42.654;23.378;2023-08-06T11:50:37;65368.34;;;22.61;80.03
6833;BME280;3454;42.654;23.378;2023-08-06T11:53:06;65379.78;;;22.69;82.18
6833;BME280;3454;42.654;23.378;2023-08-06T11:55:31;65360.38;;;22.51;79.92
6833;BME280;3454;42.654;23.378;2023-08-06T11:57:58;65347.84;;;22.42;79.57
6833;BME280;3454;42.654;23.378;2023-08-06T12:00:25;65361.69;;;22.55;78.42
6833;BME280;3454;42.654;23.378;2023-08-06T12:02:51;65354.50;;;22.48;75.07
6833;BME280;3454;42.654;23.378;2023-08-06T12:05:19;65368.34;;;22.61;75.06
6833;BME280;3454;42.654;23.378;2023-08-06T12:07:57;65417.63;;;23.06;73.50
6833;BME280;3454;42.654;23.378;2023-08-06T12:10:31;65472.13;;;23.58;69.46
6833;BME280;3454;42.654;23.378;2023-08-06T12:12:57;65547.19;;;24.28;65.60
6833;BME280;3454;42.654;23.378;2023-08-06T12:15:23;65608.56;;;24.81;64.08
6833;BME280;3454;42.654;23.378;2023-08-06T12:17:49;65649.06;;;25.18;61.33
6833;BME280;3454;42.654;23.378;2023-08-06T12:20:15;65660.53;;;25.26;60.34
6833;BME280;3454;42.654;23.378;2023-08-06T12:22:41;65676.63;;;25.41;61.13
6833;BME280;3454;42.654;23.378;2023-08-06T12:25:11;65663.84;;;25.29;60.97
6833;BME280;3454;42.654;23.378;2023-08-06T12:27:39;65667.75;;;25.33;62.39
6833;BME280;3454;42.654;23.378;2023-08-06T12:30:06;65652.75;;;25.19;63.03
6833;BME280;3454;42.654;23.378;2023-08-06T12:32:32;65618.91;;;24.88;63.23
6833;BME280;3454;42.654;23.378;2023-08-06T12:34:58;65589.69;;;24.64;63.89
6833;BME280;3454;42.654;23.378;2023-08-06T12:37:27;65578.97;;;24.52;64.73
6833;BME280;3454;42.654;23.378;2023-08-06T12:39:52;65575.06;;;24.49;66.13
6833;BME280;3454;42.654;23.378;2023-08-06T12:42:17;65558.63;;;24.36;63.58
6833;BME280;3454;42.654;23.378;2023-08-06T12:44:43;65549.00;;;24.25;63.65
6833;BME280;3454;42.654;23.378;2023-08-06T12:47:09;65560.47;;;24.33;62.33
6833;BME280;3454;42.654;23.378;2023-08-06T12:49:34;65557.31;;;24.33;62.92
6833;BME280;3454;42.654;23.378;2023-08-06T12:52:00;65561.75;;;24.37;63.66
6833;BME280;3454;42.654;23.378;2023-08-06T12:54:25;65568.81;;;24.48;61.92
6833;BME280;3454;42.654;23.378;2023-08-06T12:56:51;65585.78;;;24.61;61.07
6833;BME280;3454;42.654;23.378;2023-08-06T12:59:17;65583.19;;;24.54;61.63
6833;BME280;3454;42.654;23.378;2023-08-06T13:01:43;65574.16;;;24.50;60.96
6833;BME280;3454;42.654;23.378;2023-08-06T13:04:09;65581.19;;;24.54;61.69
6833;BME280;3454;42.654;23.378;2023-08-06T13:06:35;65600.25;;;24.74;60.87
6833;BME280;3454;42.654;23.378;2023-08-06T13:09:03;65644.97;;;25.12;59.90
6833;BME280;3454;42.654;23.378;2023-08-06T13:11:29;65671.63;;;25.36;58.30
6833;BME280;3454;42.654;23.378;2023-08-06T13:13:59;65663.31;;;25.29;59.20